sensor_id;sensor_type;location;lat;lon;timestamp;temperature;humidity
3690;DHT22;1861;50.240;8.596;2023-02-20T00:01:25;9.40;99.90
3690;DHT22;1861;50.240;8.596;2023-02-20T00:03:54;9.40;99.90
3690;DHT22;1861;50.240;8.596;2023-02-20T00:06:23;9.30;99.90
3690;DHT22;1861;50.240;8.596;2023-02-20T00:08:51;9.20;99.90
3690;DHT22;1861;50.240;8.596;2023-02-20T00:11:19;9.20;99.90
3690;DHT22;1861;50.240;8.596;2023-02-20T00:13:48;9.20;99.90
3690;DHT22;1861;50.240;8.596;2023-02-20T00:16:16;9.20;99.90
3690;DHT22;1861;50.240;8.596;2023-02-20T00:18:44;9.20;99.90
3690;DHT22;1861;50.240;8.596;2023-02-20T00:21:12;9.20;99.90
3690;DHT22;1861;50.240;8.596;2023-02-20T00:23:42;9.20;99.90
3690;DHT22;1861;50.240;8.596;2023-02-20T00:26:11;9.10;99.90
3690;DHT22;1861;50.240;8.596;2023-02-20T00:28:42;9.10;99.90
3690;DHT22;1861;50.240;8.596;2023-02-20T00:31:13;9.10;99.90
3690;DHT22;1861;50.240;8.596;2023-02-20T00:33:41;9.20;99.90
3690;DHT22;1861;50.240;8.596;2023-02-20T00:36:14;9.10;99.90
3690;DHT22;1861;50.240;8.596;2023-02-20T00:38:44;9.00;99.90
3690;DHT22;1861;50.240;8.596;2023-02-20T00:41:13;9.00;99.90
3690;DHT22;1861;50.240;8.596;2023-02-20T00:43:43;9.00;99.90
3690;DHT22;1861;50.240;8.596;2023-02-20T00:46:11;9.00;99.90
3690;DHT22;1861;50.240;8.596;2023-02-20T00:48:41;9.00;99.90
3690;DHT22;1861;50.240;8.596;2023-02-20T00:51:28;9.00;99.90
3690;DHT22;1861;50.240;8.596;2023-02-20T00:53:58;8.90;99.90
3690;DHT22;1861;50.240;8.596;2023-02-20T00:56:27;8.90;99.90
3690;DHT22;1861;50.240;8.596;2023-02-20T00:58:55;8.90;99.90
3690;DHT22;1861;50.240;8.596;2023-02-20T01:01:25;8.90;99.90
3690;DHT22;1861;50.240;8.596;2023-02-20T01:03:53;8.90;99.90
3690;DHT22;1861;50.240;8.596;2023-02-20T01:06:21;8.80;99.90
3690;DHT22;1861;50.240;8.596;2023-02-20T01:08:49;8.80;99.90
3690;DHT22;1861;50.240;8.596;2023-02-20T01:11:21;8.80;99.90
3690;DHT22;1861;50.240;8.596;2023-02-20T01:13:49;8.70;99.90
3690;DHT22;1861;50.240;8.596;2023-02-20T01:16:17;8.80;99.90
3690;DHT22;1861;50.240;8.596;2023-02-20T01:18:48;8.70;99.90
3690;DHT22;1861;50.240;8.596;2023-02-20T01:21:17;8.70;99.90
3690;DHT22;1861;50.240;8.596;2023-02-20T01:23:45;8.70;99.90
3690;DHT22;1861;50.240;8.596;2023-02-20T01:26:13;8.80;99.90
3690;DHT22;1861;50.240;8.596;2023-02-20T01:28:44;8.80;99.90
3690;DHT22;1861;50.240;8.596;2023-02-20T01:31:12;8.80;99.90
3690;DHT22;1861;50.240;8.596;2023-02-20T01:33:41;8.80;99.90
3690;DHT22;1861;50.240;8.596;2023-02-20T01:36:10;8.80;99.90
3690;DHT22;1861;50.240;8.596;2023-02-20T01:38:40;8.80;99.90
3690;DHT22;1861;50.240;8.596;2023-02-20T01:41:08;8.70;99.90
3690;DHT22;1861;50.240;8.596;2023-02-20T01:43:37;8.70;99.90
3690;DHT22;1861;50.240;8.596;2023-02-20T01:46:49;8.80;99.90
3690;DHT22;1861;50.240;8.596;2023-02-20T01:49:24;8.60;99.90
3690;DHT22;1861;50.240;8.596;2023-02-20T01:51:57;8.70;99.90
3690;DHT22;1861;50.240;8.596;2023-02-20T01:54:28;8.60;99.90
3690;DHT22;1861;50.240;8.596;2023-02-20T01:56:59;8.70;99.90
3690;DHT22;1861;50.240;8.596;2023-02-20T01:59:30;8.70;99.90
3690;DHT22;1861;50.240;8.596;2023-02-20T02:02:01;8.60;99.90
3690;DHT22;1861;50.240;8.596;2023-02-20T02:04:30;8.60;99.90
3690;DHT22;1861;50.240;8.596;2023-02-20T02:06:58;8.70;99.90
3690;DHT22;1861;50.240;8.596;2023-02-20T02:09:33;8.70;99.90
3690;DHT22;1861;50.240;8.596;2023-02-20T02:12:04;8.70;99.90
3690;DHT22;1861;50.240;8.596;2023-02-20T02:14:32;8.70;99.90
3690;DHT22;1861;50.240;8.596;2023-02-20T02:17:27;8.60;99.90
3690;DHT22;1861;50.240;8.596;2023-02-20T02:20:25;8.70;99.90
3690;DHT22;1861;50.240;8.596;2023-02-20T02:23:15;8.70;99.90
3690;DHT22;1861;50.240;8.596;2023-02-20T02:25:53;8.70;99.90
3690;DHT22;1861;50.240;8.596;2023-02-20T02:35:17;8.60;99.90
3690;DHT22;1861;50.240;8.596;2023-02-20T02:37:53;8.50;99.90
3690;DHT22;1861;50.240;8.596;2023-02-20T02:40:27;8.50;99.90
3690;DHT22;1861;50.240;8.596;2023-02-20T02:43:02;8.50;99.90
3690;DHT22;1861;50.240;8.596;2023-02-20T02:45:35;8.50;99.90
3690;DHT22;1861;50.240;8.596;2023-02-20T02:48:10;8.40;99.90
3690;DHT22;1861;50.240;8.596;2023-02-20T02:50:41;8.50;99.90
3690;DHT22;1861;50.240;8.596;2023-02-20T02:53:13;8.60;99.90
3690;DHT22;1861;50.240;8.596;2023-02-20T02:55:42;8.60;99.90
3690;DHT22;1861;50.240;8.596;2023-02-20T02:58:10;8.50;99.90
3690;DHT22;1861;50.240;8.596;2023-02-20T03:00:41;8.50;99.90
3690;DHT22;1861;50.240;8.596;2023-02-20T03:03:14;8.50;99.90
3690;DHT22;1861;50.240;8.596;2023-02-20T03:05:46;8.50;99.90
3690;DHT22;1861;50.240;8.596;2023-02-20T03:08:25;8.50;99.90
3690;DHT22;1861;50.240;8.596;2023-02-20T03:11:04;8.50;99.90
3690;DHT22;1861;50.240;8.596;2023-02-20T03:13:37;8.50;99.90
3690;DHT22;1861;50.240;8.596;2023-02-20T03:16:28;8.60;99.90
3690;DHT22;1861;50.240;8.596;2023-02-20T03:19:00;8.50;99.90
3690;DHT22;1861;50.240;8.596;2023-02-20T03:21:31;8.40;99.90
3690;DHT22;1861;50.240;8.596;2023-02-20T03:24:04;8.40;99.90
3690;DHT22;1861;50.240;8.596;2023-02-20T03:26:34;8.40;99.90
3690;DHT22;1861;50.240;8.596;2023-02-20T03:29:07;8.40;99.90
3690;DHT22;1861;50.240;8.596;2023-02-20T03:31:43;8.30;99.90
3690;DHT22;1861;50.240;8.596;2023-02-20T03:34:15;8.30;99.90
3690;DHT22;1861;50.240;8.596;2023-02-20T03:37:05;8.30;99.90
3690;DHT22;1861;50.240;8.596;2023-02-20T03:39:57;8.30;99.90
3690;DHT22;1861;50.240;8.596;2023-02-20T03:42:47;8.30;99.90
3690;DHT22;1861;50.240;8.596;2023-02-20T03:45:39;8.40;99.90
3690;DHT22;1861;50.240;8.596;2023-02-20T03:48:14;8.30;99.90
3690;DHT22;1861;50.240;8.596;2023-02-20T03:50:43;8.30;99.90
3690;DHT22;1861;50.240;8.596;2023-02-20T03:53:11;8.30;99.90
3690;DHT22;1861;50.240;8.596;2023-02-20T03:55:42;8.30;99.90
3690;DHT22;1861;50.240;8.596;2023-02-20T03:58:15;8.30;99.90
3690;DHT22;1861;50.240;8.596;2023-02-20T04:00:47;8.30;99.90
3690;DHT22;1861;50.240;8.596;2023-02-20T04:03:19;8.30;99.90
3690;DHT22;1861;50.240;8.596;2023-02-20T04:05:53;8.30;99.90
3690;DHT22;1861;50.240;8.596;2023-02-20T04:08:31;8.40;99.90
3690;DHT22;1861;50.240;8.596;2023-02-20T04:11:07;8.30;99.90
3690;DHT22;1861;50.240;8.596;2023-02-20T04:13:38;8.40;99.90
3690;DHT22;1861;50.240;8.596;2023-02-20T04:16:08;8.30;99.90
3690;DHT22;1861;50.240;8.596;2023-02-20T04:18:37;8.30;99.90
3690;DHT22;1861;50.240;8.596;2023-02-20T04:21:11;8.30;99.90
3690;DHT22;1861;50.240;8.596;2023-02-20T04:23:48;8.30;99.90
3690;DHT22;1861;50.240;8.596;2023-02-20T04:26:20;8.20;99.90
3690;DHT22;1861;50.240;8.596;2023-02-20T04:28:50;8.20;99.90
3690;DHT22;1861;50.240;8.596;2023-02-20T04:31:20;8.20;99.90
3690;DHT22;1861;50.240;8.596;2023-02-20T04:33:49;8.20;99.90
3690;DHT22;1861;50.240;8.596;2023-02-20T04:36:22;8.10;99.90
3690;DHT22;1861;50.240;8.596;2023-02-20T04:38:51;8.10;99.90
3690;DHT22;1861;50.240;8.596;2023-02-20T04:41:25;8.10;99.90
3690;DHT22;1861;50.240;8.596;2023-02-20T04:43:53;8.10;99.90
3690;DHT22;1861;50.240;8.596;2023-02-20T04:46:43;8.10;99.90
3690;DHT22;1861;50.240;8.596;2023-02-20T04:49:12;8.10;99.90
3690;DHT22;1861;50.240;8.596;2023-02-20T04:51:42;8.10;99.90
3690;DHT22;1861;50.240;8.596;2023-02-20T04:54:10;8.00;99.90
3690;DHT22;1861;50.240;8.596;2023-02-20T04:56:40;8.00;99.90
3690;DHT22;1861;50.240;8.596;2023-02-20T04:59:09;8.10;99.90
3690;DHT22;1861;50.240;8.596;2023-02-20T05:01:37;8.10;99.90
3690;DHT22;1861;50.240;8.596;2023-02-20T05:04:05;8.10;99.90
3690;DHT22;1861;50.240;8.596;2023-02-20T05:06:39;7.90;99.90
3690;DHT22;1861;50.240;8.596;2023-02-20T05:09:08;7.90;99.90
3690;DHT22;1861;50.240;8.596;2023-02-20T05:11:36;7.80;99.90
3690;DHT22;1861;50.240;8.596;2023-02-20T05:14:06;7.80;99.90
3690;DHT22;1861;50.240;8.596;2023-02-20T05:16:36;7.70;99.90
3690;DHT22;1861;50.240;8.596;2023-02-20T05:19:05;7.80;99.90
3690;DHT22;1861;50.240;8.596;2023-02-20T05:21:33;7.90;99.90
3690;DHT22;1861;50.240;8.596;2023-02-20T05:24:19;7.90;99.90
3690;DHT22;1861;50.240;8.596;2023-02-20T05:26:47;7.80;99.90
3690;DHT22;1861;50.240;8.596;2023-02-20T05:29:17;7.70;99.90
3690;DHT22;1861;50.240;8.596;2023-02-20T05:31:45;7.60;99.90
3690;DHT22;1861;50.240;8.596;2023-02-20T05:34:13;7.60;99.90
3690;DHT22;1861;50.240;8.596;2023-02-20T05:36:41;7.60;99.90
3690;DHT22;1861;50.240;8.596;2023-02-20T05:39:09;7.60;99.90
3690;DHT22;1861;50.240;8.596;2023-02-20T05:41:37;7.60;99.90
3690;DHT22;1861;50.240;8.596;2023-02-20T05:44:05;7.60;99.90
3690;DHT22;1861;50.240;8.596;2023-02-20T05:46:38;7.60;99.90
3690;DHT22;1861;50.240;8.596;2023-02-20T05:49:07;7.70;99.90
3690;DHT22;1861;50.240;8.596;2023-02-20T05:51:35;7.60;99.90
3690;DHT22;1861;50.240;8.596;2023-02-20T05:54:03;7.50;99.90
3690;DHT22;1861;50.240;8.596;2023-02-20T05:56:32;7.60;99.90
3690;DHT22;1861;50.240;8.596;2023-02-20T05:59:00;7.70;99.90
3690;DHT22;1861;50.240;8.596;2023-02-20T06:01:29;7.70;99.90
3690;DHT22;1861;50.240;8.596;2023-02-20T06:03:59;7.60;99.90
3690;DHT22;1861;50.240;8.596;2023-02-20T06:06:31;7.50;99.90
3690;DHT22;1861;50.240;8.596;2023-02-20T06:08:59;7.50;99.90
3690;DHT22;1861;50.240;8.596;2023-02-20T06:11:27;7.60;99.90
3690;DHT22;1861;50.240;8.596;2023-02-20T06:13:56;7.40;99.90
3690;DHT22;1861;50.240;8.596;2023-02-20T06:16:25;7.50;99.90
3690;DHT22;1861;50.240;8.596;2023-02-20T06:18:54;7.50;99.90
3690;DHT22;1861;50.240;8.596;2023-02-20T06:21:24;7.50;99.90
3690;DHT22;1861;50.240;8.596;2023-02-20T06:23:53;7.50;99.90
3690;DHT22;1861;50.240;8.596;2023-02-20T06:26:22;7.50;99.90
3690;DHT22;1861;50.240;8.596;2023-02-20T06:28:50;7.50;99.90
3690;DHT22;1861;50.240;8.596;2023-02-20T06:31:21;7.50;99.90
3690;DHT22;1861;50.240;8.596;2023-02-20T06:33:50;7.50;99.90
3690;DHT22;1861;50.240;8.596;2023-02-20T06:36:21;7.50;99.90
3690;DHT22;1861;50.240;8.596;2023-02-20T06:38:51;7.60;99.90
3690;DHT22;1861;50.240;8.596;2023-02-20T06:41:23;7.60;99.90
3690;DHT22;1861;50.240;8.596;2023-02-20T06:43:51;7.60;99.90
3690;DHT22;1861;50.240;8.596;2023-02-20T06:46:19;7.70;99.90
3690;DHT22;1861;50.240;8.596;2023-02-20T06:48:50;7.80;99.90
3690;DHT22;1861;50.240;8.596;2023-02-20T06:51:21;7.90;99.90
3690;DHT22;1861;50.240;8.596;2023-02-20T06:53:51;7.90;99.90
3690;DHT22;1861;50.240;8.596;2023-02-20T06:56:21;8.00;99.90
3690;DHT22;1861;50.240;8.596;2023-02-20T06:58:51;8.10;99.90
3690;DHT22;1861;50.240;8.596;2023-02-20T07:01:21;8.20;99.90
3690;DHT22;1861;50.240;8.596;2023-02-20T07:03:49;8.20;99.90
3690;DHT22;1861;50.240;8.596;2023-02-20T07:06:19;8.20;99.90
3690;DHT22;1861;50.240;8.596;2023-02-20T07:08:48;8.20;99.90
3690;DHT22;1861;50.240;8.596;2023-02-20T07:11:19;8.20;99.90
3690;DHT22;1861;50.240;8.596;2023-02-20T07:13:47;8.20;99.90
3690;DHT22;1861;50.240;8.596;2023-02-20T07:16:16;8.20;99.90
3690;DHT22;1861;50.240;8.596;2023-02-20T07:18:44;8.20;99.90
3690;DHT22;1861;50.240;8.596;2023-02-20T07:21:12;8.20;99.90
3690;DHT22;1861;50.240;8.596;2023-02-20T07:23:40;8.20;99.90
3690;DHT22;1861;50.240;8.596;2023-02-20T07:26:17;8.20;99.90
3690;DHT22;1861;50.240;8.596;2023-02-20T07:28:46;8.20;99.90
3690;DHT22;1861;50.240;8.596;2023-02-20T07:31:14;8.30;99.90
3690;DHT22;1861;50.240;8.596;2023-02-20T07:33:42;8.30;99.90
3690;DHT22;1861;50.240;8.596;2023-02-20T07:36:11;8.30;99.90
3690;DHT22;1861;50.240;8.596;2023-02-20T07:38:39;8.40;99.90
3690;DHT22;1861;50.240;8.596;2023-02-20T07:41:08;8.30;99.90
3690;DHT22;1861;50.240;8.596;2023-02-20T07:43:37;8.40;99.90
3690;DHT22;1861;50.240;8.596;2023-02-20T07:46:07;8.40;99.90
3690;DHT22;1861;50.240;8.596;2023-02-20T07:48:35;8.40;99.90
3690;DHT22;1861;50.240;8.596;2023-02-20T07:51:03;8.40;99.90
3690;DHT22;1861;50.240;8.596;2023-02-20T07:53:31;8.40;99.90
3690;DHT22;1861;50.240;8.596;2023-02-20T07:55:59;8.50;99.90
3690;DHT22;1861;50.240;8.596;2023-02-20T07:58:27;8.60;99.90
3690;DHT22;1861;50.240;8.596;2023-02-20T08:00:57;8.60;99.90
3690;DHT22;1861;50.240;8.596;2023-02-20T08:03:25;8.70;99.90
3690;DHT22;1861;50.240;8.596;2023-02-20T08:05:53;8.70;99.90
3690;DHT22;1861;50.240;8.596;2023-02-20T08:08:21;8.80;99.90
3690;DHT22;1861;50.240;8.596;2023-02-20T08:10:51;8.80;99.90
3690;DHT22;1861;50.240;8.596;2023-02-20T08:13:33;8.90;99.90
3690;DHT22;1861;50.240;8.596;2023-02-20T08:16:03;8.90;99.90
3690;DHT22;1861;50.240;8.596;2023-02-20T08:18:31;8.90;99.90
3690;DHT22;1861;50.240;8.596;2023-02-20T08:20:59;9.00;99.90
3690;DHT22;1861;50.240;8.596;2023-02-20T08:23:28;9.10;99.90
3690;DHT22;1861;50.240;8.596;2023-02-20T08:25:56;9.10;99.90
3690;DHT22;1861;50.240;8.596;2023-02-20T08:28:25;9.20;99.90
3690;DHT22;1861;50.240;8.596;2023-02-20T08:30:53;9.30;99.90
3690;DHT22;1861;50.240;8.596;2023-02-20T08:33:23;9.40;99.90
3690;DHT22;1861;50.240;8.596;2023-02-20T08:35:51;9.30;99.90
3690;DHT22;1861;50.240;8.596;2023-02-20T08:38:23;9.40;99.90
3690;DHT22;1861;50.240;8.596;2023-02-20T08:40:52;9.40;99.90
3690;DHT22;1861;50.240;8.596;2023-02-20T08:43:20;9.50;99.90
3690;DHT22;1861;50.240;8.596;2023-02-20T08:45:48;9.50;99.90
3690;DHT22;1861;50.240;8.596;2023-02-20T08:48:16;9.50;99.90
3690;DHT22;1861;50.240;8.596;2023-02-20T08:50:46;9.50;99.90
3690;DHT22;1861;50.240;8.596;2023-02-20T08:53:14;9.60;99.90
3690;DHT22;1861;50.240;8.596;2023-02-20T08:55:43;9.70;99.90
3690;DHT22;1861;50.240;8.596;2023-02-20T08:58:11;9.80;99.90
3690;DHT22;1861;50.240;8.596;2023-02-20T09:00:39;9.90;99.90
3690;DHT22;1861;50.240;8.596;2023-02-20T09:03:07;9.90;99.90
3690;DHT22;1861;50.240;8.596;2023-02-20T09:05:35;10.00;99.90
3690;DHT22;1861;50.240;8.596;2023-02-20T09:08:06;10.10;99.90
3690;DHT22;1861;50.240;8.596;2023-02-20T09:10:35;10.20;99.90
3690;DHT22;1861;50.240;8.596;2023-02-20T09:13:03;10.20;99.90
3690;DHT22;1861;50.240;8.596;2023-02-20T09:15:31;10.20;99.90
3690;DHT22;1861;50.240;8.596;2023-02-20T09:18:04;10.20;99.90
3690;DHT22;1861;50.240;8.596;2023-02-20T09:20:36;10.20;99.90
3690;DHT22;1861;50.240;8.596;2023-02-20T09:23:06;10.20;99.90
3690;DHT22;1861;50.240;8.596;2023-02-20T09:25:35;10.30;99.90
3690;DHT22;1861;50.240;8.596;2023-02-20T09:28:03;10.30;99.90
3690;DHT22;1861;50.240;8.596;2023-02-20T09:30:31;10.30;99.90
3690;DHT22;1861;50.240;8.596;2023-02-20T09:33:00;10.40;99.90
3690;DHT22;1861;50.240;8.596;2023-02-20T09:35:29;10.40;99.90
3690;DHT22;1861;50.240;8.596;2023-02-20T09:37:57;10.20;99.90
3690;DHT22;1861;50.240;8.596;2023-02-20T09:40:29;10.20;99.90
3690;DHT22;1861;50.240;8.596;2023-02-20T09:43:18;10.10;99.90
3690;DHT22;1861;50.240;8.596;2023-02-20T09:45:55;10.20;99.90
3690;DHT22;1861;50.240;8.596;2023-02-20T09:48:33;10.20;99.90
3690;DHT22;1861;50.240;8.596;2023-02-20T09:51:05;10.10;99.90
3690;DHT22;1861;50.240;8.596;2023-02-20T09:53:41;10.20;99.90
3690;DHT22;1861;50.240;8.596;2023-02-20T09:56:18;10.10;99.90
3690;DHT22;1861;50.240;8.596;2023-02-20T09:58:51;10.20;99.90
3690;DHT22;1861;50.240;8.596;2023-02-20T10:01:21;10.20;99.90
3690;DHT22;1861;50.240;8.596;2023-02-20T10:03:55;10.30;99.90
3690;DHT22;1861;50.240;8.596;2023-02-20T10:06:26;10.30;99.90
3690;DHT22;1861;50.240;8.596;2023-02-20T10:08:55;10.40;99.90
3690;DHT22;1861;50.240;8.596;2023-02-20T10:11:37;10.50;99.90
3690;DHT22;1861;50.240;8.596;2023-02-20T10:14:27;10.50;99.90
3690;DHT22;1861;50.240;8.596;2023-02-20T10:17:03;10.50;99.90
3690;DHT22;1861;50.240;8.596;2023-02-20T10:19:42;10.50;99.90
3690;DHT22;1861;50.240;8.596;2023-02-20T10:22:14;10.60;99.90
3690;DHT22;1861;50.240;8.596;2023-02-20T10:24:55;10.60;99.90
3690;DHT22;1861;50.240;8.596;2023-02-20T10:27:37;10.60;99.90
3690;DHT22;1861;50.240;8.596;2023-02-20T10:30:10;10.60;99.90
3690;DHT22;1861;50.240;8.596;2023-02-20T10:32:42;10.60;99.90
3690;DHT22;1861;50.240;8.596;2023-02-20T10:35:16;10.70;99.90
3690;DHT22;1861;50.240;8.596;2023-02-20T10:37:49;10.70;99.90
3690;DHT22;1861;50.240;8.596;2023-02-20T10:40:22;10.70;99.90
3690;DHT22;1861;50.240;8.596;2023-02-20T10:42:58;10.70;99.90
3690;DHT22;1861;50.240;8.596;2023-02-20T10:45:39;10.70;99.90
3690;DHT22;1861;50.240;8.596;2023-02-20T10:48:11;10.70;99.90
3690;DHT22;1861;50.240;8.596;2023-02-20T10:50:45;10.70;99.90
3690;DHT22;1861;50.240;8.596;2023-02-20T10:53:22;10.70;99.90
3690;DHT22;1861;50.240;8.596;2023-02-20T10:55:59;10.70;99.90
3690;DHT22;1861;50.240;8.596;2023-02-20T10:58:32;10.70;99.90
3690;DHT22;1861;50.240;8.596;2023-02-20T11:01:05;10.70;99.90
3690;DHT22;1861;50.240;8.596;2023-02-20T11:03:40;10.70;99.90
3690;DHT22;1861;50.240;8.596;2023-02-20T11:06:13;10.70;99.90
3690;DHT22;1861;50.240;8.596;2023-02-20T11:08:43;10.70;99.90
3690;DHT22;1861;50.240;8.596;2023-02-20T11:11:21;10.70;99.90
3690;DHT22;1861;50.240;8.596;2023-02-20T11:13:51;10.80;99.90
3690;DHT22;1861;50.240;8.596;2023-02-20T11:16:26;10.80;99.90
3690;DHT22;1861;50.240;8.596;2023-02-20T11:19:02;10.80;99.90
3690;DHT22;1861;50.240;8.596;2023-02-20T11:21:39;10.80;99.90
3690;DHT22;1861;50.240;8.596;2023-02-20T11:24:31;10.80;99.90
3690;DHT22;1861;50.240;8.596;2023-02-20T11:27:09;10.80;99.90
3690;DHT22;1861;50.240;8.596;2023-02-20T11:29:47;10.90;99.90
3690;DHT22;1861;50.240;8.596;2023-02-20T11:32:32;10.80;99.90
3690;DHT22;1861;50.240;8.596;2023-02-20T11:35:21;10.90;99.90
3690;DHT22;1861;50.240;8.596;2023-02-20T11:37:51;10.90;99.90
3690;DHT22;1861;50.240;8.596;2023-02-20T11:40:39;10.90;99.90
3690;DHT22;1861;50.240;8.596;2023-02-20T11:43:13;10.90;99.90
3690;DHT22;1861;50.240;8.596;2023-02-20T11:45:44;10.90;99.90
3690;DHT22;1861;50.240;8.596;2023-02-20T11:48:14;10.90;99.90
3690;DHT22;1861;50.240;8.596;2023-02-20T11:50:43;11.00;99.90
3690;DHT22;1861;50.240;8.596;2023-02-20T11:53:20;11.00;99.90
3690;DHT22;1861;50.240;8.596;2023-02-20T11:55:49;11.00;99.90
3690;DHT22;1861;50.240;8.596;2023-02-20T11:58:27;11.00;99.90
3690;DHT22;1861;50.240;8.596;2023-02-20T12:00:56;11.00;99.90
3690;DHT22;1861;50.240;8.596;2023-02-20T12:03:26;11.00;99.90
3690;DHT22;1861;50.240;8.596;2023-02-20T12:05:56;11.00;99.90
3690;DHT22;1861;50.240;8.596;2023-02-20T12:08:38;11.00;99.90
3690;DHT22;1861;50.240;8.596;2023-02-20T12:11:12;11.00;99.90
3690;DHT22;1861;50.240;8.596;2023-02-20T12:13:42;11.10;99.90
3690;DHT22;1861;50.240;8.596;2023-02-20T12:16:28;11.00;99.90
3690;DHT22;1861;50.240;8.596;2023-02-20T12:19:05;11.00;99.90
3690;DHT22;1861;50.240;8.596;2023-02-20T12:21:45;11.00;99.90
3690;DHT22;1861;50.240;8.596;2023-02-20T12:24:34;11.10;99.90
3690;DHT22;1861;50.240;8.596;2023-02-20T12:27:31;11.10;99.90
3690;DHT22;1861;50.240;8.596;2023-02-20T12:30:09;11.10;99.90
3690;DHT22;1861;50.240;8.596;2023-02-20T12:32:49;11.10;99.90
3690;DHT22;1861;50.240;8.596;2023-02-20T12:35:29;11.10;99.90
3690;DHT22;1861;50.240;8.596;2023-02-20T12:38:11;11.10;99.90
3690;DHT22;1861;50.240;8.596;2023-02-20T12:40:52;11.10;99.90
3690;DHT22;1861;50.240;8.596;2023-02-20T12:43:26;11.10;99.90
3690;DHT22;1861;50.240;8.596;2023-02-20T12:46:05;11.10;99.90
3690;DHT22;1861;50.240;8.596;2023-02-20T12:48:43;11.10;99.90
3690;DHT22;1861;50.240;8.596;2023-02-20T12:51:23;11.10;99.90
3690;DHT22;1861;50.240;8.596;2023-02-20T12:54:06;11.10;99.90
3690;DHT22;1861;50.240;8.596;2023-02-20T12:56:50;11.20;99.90
3690;DHT22;1861;50.240;8.596;2023-02-20T12:59:26;11.20;99.90
3690;DHT22;1861;50.240;8.596;2023-02-20T13:02:00;11.20;99.90
3690;DHT22;1861;50.240;8.596;2023-02-20T13:04:40;11.20;99.90
3690;DHT22;1861;50.240;8.596;2023-02-20T13:07:14;11.20;99.90
3690;DHT22;1861;50.240;8.596;2023-02-20T13:09:58;11.20;99.90
3690;DHT22;1861;50.240;8.596;2023-02-20T13:12:29;11.20;99.90
3690;DHT22;1861;50.240;8.596;2023-02-20T13:15:19;11.20;99.90
3690;DHT22;1861;50.240;8.596;2023-02-20T13:17:53;11.20;99.90
3690;DHT22;1861;50.240;8.596;2023-02-20T13:20:27;11.20;99.90
3690;DHT22;1861;50.240;8.596;2023-02-20T13:23:00;11.20;99.90
3690;DHT22;1861;50.240;8.596;2023-02-20T13:25:34;11.20;99.90
3690;DHT22;1861;50.240;8.596;2023-02-20T13:28:21;11.20;99.90
3690;DHT22;1861;50.240;8.596;2023-02-20T13:31:07;11.30;99.90
3690;DHT22;1861;50.240;8.596;2023-02-20T13:33:36;11.30;99.90
3690;DHT22;1861;50.240;8.596;2023-02-20T13:36:15;11.30;99.90
3690;DHT22;1861;50.240;8.596;2023-02-20T13:39:24;11.30;99.90
3690;DHT22;1861;50.240;8.596;2023-02-20T13:41:57;11.30;99.90
3690;DHT22;1861;50.240;8.596;2023-02-20T13:44:38;11.30;99.90
3690;DHT22;1861;50.240;8.596;2023-02-20T13:47:29;11.30;99.90
3690;DHT22;1861;50.240;8.596;2023-02-20T13:49:58;11.30;99.90
3690;DHT22;1861;50.240;8.596;2023-02-20T13:52:46;11.30;99.90
3690;DHT22;1861;50.240;8.596;2023-02-20T13:55:21;11.30;99.90
3690;DHT22;1861;50.240;8.596;2023-02-20T13:57:51;11.30;99.90
3690;DHT22;1861;50.240;8.596;2023-02-20T14:00:27;11.40;99.90
3690;DHT22;1861;50.240;8.596;2023-02-20T14:02:56;11.40;99.90
3690;DHT22;1861;50.240;8.596;2023-02-20T14:05:28;11.40;99.90
3690;DHT22;1861;50.240;8.596;2023-02-20T14:07:58;11.30;99.90
3690;DHT22;1861;50.240;8.596;2023-02-20T14:10:28;11.40;99.90
3690;DHT22;1861;50.240;8.596;2023-02-20T14:13:00;11.40;99.90
3690;DHT22;1861;50.240;8.596;2023-02-20T14:15:31;11.40;99.90
3690;DHT22;1861;50.240;8.596;2023-02-20T14:18:00;11.40;99.90
3690;DHT22;1861;50.240;8.596;2023-02-20T14:20:33;11.40;99.90
3690;DHT22;1861;50.240;8.596;2023-02-20T14:23:09;11.40;99.90
3690;DHT22;1861;50.240;8.596;2023-02-20T14:25:37;11.30;99.90
3690;DHT22;1861;50.240;8.596;2023-02-20T14:28:13;11.40;99.90
3690;DHT22;1861;50.240;8.596;2023-02-20T14:30:42;11.40;99.90
3690;DHT22;1861;50.240;8.596;2023-02-20T14:33:23;11.50;99.90
3690;DHT22;1861;50.240;8.596;2023-02-20T14:36:18;11.50;99.90
3690;DHT22;1861;50.240;8.596;2023-02-20T14:38:58;11.40;99.90
3690;DHT22;1861;50.240;8.596;2023-02-20T14:41:30;11.40;99.90
3690;DHT22;1861;50.240;8.596;2023-02-20T14:44:00;11.40;99.90
3690;DHT22;1861;50.240;8.596;2023-02-20T14:46:30;11.40;99.90
3690;DHT22;1861;50.240;8.596;2023-02-20T14:49:05;11.40;99.90
3690;DHT22;1861;50.240;8.596;2023-02-20T14:51:35;11.40;99.90
3690;DHT22;1861;50.240;8.596;2023-02-20T14:54:17;11.40;99.90
3690;DHT22;1861;50.240;8.596;2023-02-20T14:56:46;11.40;99.90
3690;DHT22;1861;50.240;8.596;2023-02-20T14:59:24;11.40;99.90
3690;DHT22;1861;50.240;8.596;2023-02-20T15:01:55;11.40;99.90
3690;DHT22;1861;50.240;8.596;2023-02-20T15:04:24;11.40;99.90
3690;DHT22;1861;50.240;8.596;2023-02-20T15:06:59;11.40;99.90
3690;DHT22;1861;50.240;8.596;2023-02-20T15:09:41;11.40;99.90
3690;DHT22;1861;50.240;8.596;2023-02-20T15:12:20;11.50;99.90
3690;DHT22;1861;50.240;8.596;2023-02-20T15:14:54;11.40;99.90
3690;DHT22;1861;50.240;8.596;2023-02-20T15:17:25;11.40;99.90
3690;DHT22;1861;50.240;8.596;2023-02-20T15:19:54;11.40;99.90
3690;DHT22;1861;50.240;8.596;2023-02-20T15:22:29;11.50;99.90
3690;DHT22;1861;50.240;8.596;2023-02-20T15:25:28;11.50;99.90
3690;DHT22;1861;50.240;8.596;2023-02-20T15:28:04;11.50;99.90
3690;DHT22;1861;50.240;8.596;2023-02-20T15:30:32;11.50;99.90
3690;DHT22;1861;50.240;8.596;2023-02-20T15:33:01;11.50;99.90
3690;DHT22;1861;50.240;8.596;2023-02-20T15:35:30;11.50;99.90
3690;DHT22;1861;50.240;8.596;2023-02-20T15:38:01;11.50;99.90
3690;DHT22;1861;50.240;8.596;2023-02-20T15:40:32;11.50;99.90
3690;DHT22;1861;50.240;8.596;2023-02-20T15:43:01;11.50;99.90
3690;DHT22;1861;50.240;8.596;2023-02-20T15:45:49;11.50;99.90
3690;DHT22;1861;50.240;8.596;2023-02-20T15:48:18;11.50;99.90
3690;DHT22;1861;50.240;8.596;2023-02-20T15:50:46;11.50;99.90
3690;DHT22;1861;50.240;8.596;2023-02-20T15:53:17;11.50;99.90
3690;DHT22;1861;50.240;8.596;2023-02-20T15:55:49;11.50;99.90
3690;DHT22;1861;50.240;8.596;2023-02-20T15:58:24;11.50;99.90
3690;DHT22;1861;50.240;8.596;2023-02-20T16:00:58;11.50;99.90
3690;DHT22;1861;50.240;8.596;2023-02-20T16:03:28;11.50;99.90
3690;DHT22;1861;50.240;8.596;2023-02-20T16:06:04;11.40;99.90
3690;DHT22;1861;50.240;8.596;2023-02-20T16:08:33;11.50;99.90
3690;DHT22;1861;50.240;8.596;2023-02-20T16:11:02;11.50;99.90
3690;DHT22;1861;50.240;8.596;2023-02-20T16:13:35;11.40;99.90
3690;DHT22;1861;50.240;8.596;2023-02-20T16:16:12;11.40;99.90
3690;DHT22;1861;50.240;8.596;2023-02-20T16:18:50;11.40;99.90
3690;DHT22;1861;50.240;8.596;2023-02-20T16:21:22;11.40;99.90
3690;DHT22;1861;50.240;8.596;2023-02-20T16:23:51;11.40;99.90
3690;DHT22;1861;50.240;8.596;2023-02-20T16:26:22;11.40;99.90
3690;DHT22;1861;50.240;8.596;2023-02-20T16:28:54;11.40;99.90
3690;DHT22;1861;50.240;8.596;2023-02-20T16:34:32;11.40;99.90
3690;DHT22;1861;50.240;8.596;2023-02-20T16:37:01;11.40;99.90
3690;DHT22;1861;50.240;8.596;2023-02-20T16:39:29;11.30;99.90
3690;DHT22;1861;50.240;8.596;2023-02-20T16:41:59;11.40;99.90
3690;DHT22;1861;50.240;8.596;2023-02-20T16:44:34;11.30;99.90
3690;DHT22;1861;50.240;8.596;2023-02-20T16:47:03;11.30;99.90
3690;DHT22;1861;50.240;8.596;2023-02-20T16:49:31;11.30;99.90
3690;DHT22;1861;50.240;8.596;2023-02-20T16:52:03;11.30;99.90
3690;DHT22;1861;50.240;8.596;2023-02-20T16:54:37;11.30;99.90
3690;DHT22;1861;50.240;8.596;2023-02-20T16:57:16;11.30;99.90